Miller City, OH (45864)

1:08 PM EDT on August 30, 2015 (GMT -0400)
Homer March Farms LLC | | Change Station
CLOSE
Current Station
Personal Weather Station
Location: Continental, OH
Elevation: 715 ft
Nearby Weather Stations

Elev 715 ft 41.11 °N, 84.19 °W | Updated 28 seconds ago

Partly Cloudy
Partly Cloudy
81.0 °F
Feels Like 83 °F
N
5.6
Wind Variable Wind from WNW
Gusts 7.4 mph

Today
High -- | Low -- °F
--% Chance of Precip.
Yesterday
High -- | Low -- °F
Precip. -- in
7:00 AM 8:12 PM
Full, 99% visible
Pressure 30.06 in
Visibility 10.0 miles
Clouds Scattered Clouds 2700 ft
Mostly Cloudy 3300 ft
Heat Index 83 °F
Dew Point 65 °F
Humidity 59%
Rainfall 0.00 in
Snow Depth Not available.
UV 7.0 out of 12
Pollen 8.40 out of 12
Air Quality Not available.
Flu Activity Not available.
METAR KDFI 301653Z AUTO 28005KT 10SM SCT027 BKN033 28/21 A3007 RMK AO2 SLP178 T02780206 $
Pressure 30.06 in
Visibility 10.0 miles
Clouds Scattered Clouds 2700 ft
Mostly Cloudy 3300 ft
Heat Index 83 °F
Dew Point 65 °F
Humidity 59%
Rainfall 0.00 in
Snow Depth Not available.
UV 7.0 out of 12
Pollen 8.40 out of 12
Air Quality Not available.
Flu Activity Not available.
METAR KDFI 301653Z AUTO 28005KT 10SM SCT027 BKN033 28/21 A3007 RMK AO2 SLP178 T02780206 $

10-Day Weather Forecast

×

Almanac

Astronomy

Aug. 30, 2015 Rise Set
Actual Time
Civil Twilight
Nautical Twilight
Astronomical Twilight
Moon
Length of Visible Light
Length of Day
Tomorrow will be .
, % of the Moon is Illuminated

Today's Extremes

State Highs State Lows

Community

WunderPhotos

Upload Photos

1,851,008 photos uploaded!

WunderBlogs® & News

Nearby

Air Quality

  Air Quality AQ Index Pollutant
Not available.

Snow Depth

Station Depth Elevation

Earthquake Activity

City Distance Mag. Time & Date
Minimum magnitude displayed is 2.5.

Coastal Water Temperatures

Place Temperature

Stations

Nearby Weather Stations

Station Location Temp. Windchill Dew Point Humidity Wind Precip. Elev Updated Type